createdAt,value
2018-01-11T00:00:51.542Z,1.6
2018-01-11T00:01:55.968Z,1.6
2018-01-11T00:03:01.572Z,1.6
2018-01-11T00:04:06.639Z,1.5
2018-01-11T00:05:13.753Z,1.6
2018-01-11T00:06:58.367Z,1.5
2018-01-11T00:08:03.146Z,1.5
2018-01-11T00:09:11.464Z,1.5
2018-01-11T00:10:18.370Z,1.6
2018-01-11T00:11:22.177Z,1.5
2018-01-11T00:12:28.764Z,1.6
2018-01-11T00:13:33.791Z,1.7
2018-01-11T00:14:37.145Z,1.6
2018-01-11T00:15:41.000Z,1.7
2018-01-11T00:16:45.946Z,1.7
2018-01-11T00:17:55.939Z,1.9
2018-01-11T00:18:59.333Z,1.7
2018-01-11T00:20:04.203Z,1.7
2018-01-11T00:21:08.879Z,1.7
2018-01-11T00:22:13.459Z,1.6
2018-01-11T00:23:17.308Z,1.6
2018-01-11T00:24:25.156Z,1.5
2018-01-11T00:25:31.036Z,1.5
2018-01-11T00:26:41.068Z,1.5
2018-01-11T00:27:47.973Z,1.5
2018-01-11T00:28:54.875Z,1.6
2018-01-11T00:29:59.220Z,1.6
2018-01-11T00:31:03.411Z,1.6
2018-01-11T00:32:06.868Z,1.7
2018-01-11T00:33:10.074Z,1.7
2018-01-11T00:34:13.909Z,1.6
2018-01-11T00:35:17.208Z,1.7
2018-01-11T00:36:20.474Z,1.6
2018-01-11T00:37:24.004Z,1.6
2018-01-11T00:38:27.557Z,1.6
2018-01-11T00:39:35.339Z,1.6
2018-01-11T00:40:38.747Z,1.6
2018-01-11T00:41:42.759Z,1.5
2018-01-11T00:42:46.126Z,1.5
2018-01-11T00:43:49.284Z,1.5
2018-01-11T00:44:52.791Z,1.5
2018-01-11T00:45:56.495Z,1.5
2018-01-11T00:47:01.052Z,1.5
2018-01-11T00:48:05.116Z,1.5
2018-01-11T00:49:08.509Z,1.5
2018-01-11T00:50:15.634Z,1.5
2018-01-11T00:51:19.685Z,1.5
2018-01-11T00:52:23.754Z,1.5
2018-01-11T00:53:26.950Z,1.6
2018-01-11T00:54:30.339Z,1.6
2018-01-11T00:55:34.420Z,1.6
2018-01-11T00:56:37.790Z,1.5
2018-01-11T00:57:41.975Z,1.7
2018-01-11T00:58:45.425Z,1.5
2018-01-11T00:59:48.973Z,1.5
2018-01-11T01:00:55.770Z,1.4
2018-01-11T01:01:59.764Z,1.4
2018-01-11T01:03:03.039Z,1.4
2018-01-11T01:04:06.410Z,1.3
2018-01-11T01:05:09.846Z,1.3
2018-01-11T01:06:13.027Z,1.3
2018-01-11T01:07:17.340Z,1.3
2018-01-11T01:08:20.849Z,1.3
2018-01-11T01:09:24.177Z,1.3
2018-01-11T01:10:27.623Z,1.4
2018-01-11T01:11:34.515Z,1.4
2018-01-11T01:12:37.892Z,1.4
2018-01-11T01:13:41.061Z,1.4
2018-01-11T01:14:44.483Z,1.5
2018-01-11T01:15:48.389Z,1.5
2018-01-11T01:16:52.481Z,1.5
2018-01-11T01:17:55.815Z,1.5
2018-01-11T01:19:00.255Z,1.5
2018-01-11T01:20:03.660Z,1.5
2018-01-11T01:21:06.952Z,1.4
2018-01-11T01:22:13.808Z,1.4
2018-01-11T01:23:17.321Z,1.4
2018-01-11T01:24:21.149Z,1.4
2018-01-11T01:25:24.573Z,1.4
2018-01-11T01:26:30.459Z,1.4
2018-01-11T01:27:33.548Z,1.4
2018-01-11T01:28:37.470Z,1.4
2018-01-11T01:29:40.950Z,1.5
2018-01-11T01:30:44.314Z,1.5
2018-01-11T01:31:48.509Z,1.5
2018-01-11T01:32:55.446Z,1.5
2018-01-11T01:33:59.509Z,1.5
2018-01-11T01:35:03.584Z,1.5
2018-01-11T01:36:07.140Z,1.5
2018-01-11T01:37:11.317Z,1.5
2018-01-11T01:38:15.559Z,1.5
2018-01-11T01:39:19.690Z,1.6
2018-01-11T01:40:23.656Z,1.5
2018-01-11T01:41:27.072Z,1.3
2018-01-11T01:42:30.972Z,1.5
2018-01-11T01:43:38.549Z,1.5
2018-01-11T01:44:42.618Z,1.4
2018-01-11T01:45:47.112Z,1.4
2018-01-11T01:46:51.866Z,1.4
2018-01-11T01:47:56.110Z,1.4
2018-01-11T01:49:00.231Z,1.5
2018-01-11T01:50:03.629Z,1.4
2018-01-11T01:51:08.275Z,1.4
2018-01-11T01:52:12.282Z,1.4
2018-01-11T01:53:15.803Z,1.5
2018-01-11T01:54:22.693Z,1.5
2018-01-11T01:55:26.144Z,1.5
2018-01-11T01:56:29.508Z,1.4
2018-01-11T01:57:32.618Z,1.4
2018-01-11T01:58:36.154Z,1.4
2018-01-11T01:59:39.677Z,1.4
2018-01-11T02:00:43.149Z,1.4
2018-01-11T02:01:46.693Z,1.4
2018-01-11T02:02:50.078Z,1.4
2018-01-11T02:03:54.194Z,1.4
2018-01-11T02:05:01.497Z,1.3
2018-01-11T02:06:05.302Z,1.3
2018-01-11T02:07:08.502Z,1.3
2018-01-11T02:08:11.912Z,1.4
2018-01-11T02:09:15.836Z,1.4
2018-01-11T02:10:19.653Z,1.4
2018-01-11T02:11:22.927Z,1.4
2018-01-11T02:12:26.791Z,1.4
2018-01-11T02:13:30.008Z,1.4
2018-01-11T02:14:33.377Z,1.4
2018-01-11T02:15:40.363Z,1.4
2018-01-11T02:16:43.662Z,1.4
2018-01-11T02:17:47.080Z,1.4
2018-01-11T02:18:50.493Z,1.4
2018-01-11T02:19:53.979Z,1.4
2018-01-11T02:20:57.398Z,1.3
2018-01-11T02:22:00.899Z,1.3
2018-01-11T02:23:04.423Z,1.3
2018-01-11T02:24:07.841Z,1.3
2018-01-11T02:25:11.241Z,1.3
2018-01-11T02:26:18.303Z,1.3
2018-01-11T02:27:22.481Z,1.3
2018-01-11T02:28:27.006Z,1.3
2018-01-11T02:29:30.555Z,1.2
2018-01-11T02:30:33.834Z,1.2
2018-01-11T02:31:37.234Z,1.2
2018-01-11T02:32:40.638Z,1.1
2018-01-11T02:33:43.750Z,1.1
2018-01-11T02:34:47.183Z,1.1
2018-01-11T02:35:50.646Z,1.1
2018-01-11T02:36:57.576Z,1.3
2018-01-11T02:38:01.853Z,1.1
2018-01-11T02:39:05.108Z,1.2
2018-01-11T02:40:09.214Z,1.2
2018-01-11T02:41:13.540Z,1.2
2018-01-11T02:42:16.885Z,1.2
2018-01-11T02:43:20.431Z,1.2
2018-01-11T02:44:24.841Z,1.1
2018-01-11T02:45:28.942Z,1.1
2018-01-11T02:46:32.419Z,1.1
2018-01-11T02:47:39.831Z,1.1
2018-01-11T02:48:43.753Z,1.1
2018-01-11T02:49:47.743Z,1.1
2018-01-11T02:50:51.214Z,1.1
2018-01-11T02:51:54.508Z,1.2
2018-01-11T02:52:58.908Z,1.2
2018-01-11T02:54:02.423Z,1.2
2018-01-11T02:55:05.797Z,1.2
2018-01-11T02:56:09.074Z,1.2
2018-01-11T02:57:13.826Z,1.2
2018-01-11T02:58:21.486Z,1.3
2018-01-11T02:59:24.732Z,1.3
2018-01-11T03:00:28.095Z,1.3
2018-01-11T03:01:31.303Z,1.3
2018-01-11T03:02:35.267Z,1.4
2018-01-11T03:03:38.370Z,1.3
2018-01-11T03:04:41.802Z,1
2018-01-11T03:05:45.171Z,1.2
2018-01-11T03:06:48.485Z,1.2
2018-01-11T03:07:51.932Z,1.2
2018-01-11T03:08:59.064Z,1.2
2018-01-11T03:10:03.281Z,1.3
2018-01-11T03:11:06.708Z,1.3
2018-01-11T03:12:11.374Z,1.3
2018-01-11T03:13:14.717Z,1.2
2018-01-11T03:14:18.066Z,1.3
2018-01-11T03:15:21.658Z,1.3
2018-01-11T03:16:25.599Z,1.3
2018-01-11T03:17:29.750Z,1.3
2018-01-11T03:18:33.386Z,1.3
2018-01-11T03:19:41.054Z,1.3
2018-01-11T03:20:45.121Z,1.4
2018-01-11T03:21:48.506Z,1.4
2018-01-11T03:22:53.014Z,1.3
2018-01-11T03:23:56.252Z,1.4
2018-01-11T03:25:00.264Z,1.4
2018-01-11T03:26:03.586Z,1.4
2018-01-11T03:27:06.939Z,1.4
2018-01-11T03:28:10.384Z,1.4
2018-01-11T03:29:13.931Z,1.4
2018-01-11T03:30:21.513Z,1.4
2018-01-11T03:31:25.575Z,1.4
2018-01-11T03:32:30.201Z,1.4
2018-01-11T03:33:34.755Z,1.4
2018-01-11T03:34:38.211Z,1.4
2018-01-11T03:35:41.692Z,1.4
2018-01-11T03:36:46.026Z,1.4
2018-01-11T03:37:50.300Z,1.4
2018-01-11T03:38:54.240Z,1.4
2018-01-11T03:39:57.294Z,1.4
2018-01-11T03:41:04.134Z,1.4
2018-01-11T03:42:07.422Z,1.4
2018-01-11T03:43:11.376Z,1.5
2018-01-11T03:44:14.749Z,1.5
2018-01-11T03:45:18.256Z,1.4
2018-01-11T03:46:21.901Z,1.4
2018-01-11T03:47:25.294Z,1.4
2018-01-11T03:48:28.756Z,1.4
2018-01-11T03:49:32.076Z,1.4
2018-01-11T03:50:35.491Z,1.4
2018-01-11T03:51:42.215Z,1.3
2018-01-11T03:52:45.713Z,1.3
2018-01-11T03:53:49.212Z,1.2
2018-01-11T03:54:52.620Z,1.3
2018-01-11T03:55:55.829Z,1.3
2018-01-11T03:56:59.066Z,1.3
2018-01-11T03:58:02.470Z,1.3
2018-01-11T03:59:05.916Z,1.3
2018-01-11T04:00:09.876Z,1.3
2018-01-11T04:01:13.287Z,1.3
2018-01-11T04:02:20.217Z,1.3
2018-01-11T04:03:23.466Z,1.3
2018-01-11T04:04:27.886Z,1.3
2018-01-11T04:05:31.415Z,1.4
2018-01-11T04:06:34.909Z,1.4
2018-01-11T04:07:38.393Z,1.4
2018-01-11T04:08:42.488Z,1.3
2018-01-11T04:09:45.853Z,1.3
2018-01-11T04:10:49.235Z,1.4
2018-01-11T04:11:52.208Z,1.3
2018-01-11T04:12:59.120Z,1.3
2018-01-11T04:14:03.251Z,1.3
2018-01-11T04:15:07.392Z,1.4
2018-01-11T04:16:10.972Z,1.4
2018-01-11T04:17:14.961Z,1.4
2018-01-11T04:18:18.269Z,1.4
2018-01-11T04:19:21.615Z,1.4
2018-01-11T04:20:25.186Z,1.4
2018-01-11T04:21:29.235Z,1.4
2018-01-11T04:22:33.026Z,1.4
2018-01-11T04:23:42.383Z,1.4
2018-01-11T04:24:45.908Z,1.3
2018-01-11T04:25:50.144Z,1.3
2018-01-11T04:26:53.531Z,1.4
2018-01-11T04:27:57.597Z,1.4
2018-01-11T04:29:01.770Z,1.4
2018-01-11T04:30:07.064Z,1.5
2018-01-11T04:31:11.314Z,1.5
2018-01-11T04:32:15.396Z,1.5
2018-01-11T04:33:21.072Z,1.5
2018-01-11T04:34:29.025Z,1.5
2018-01-11T04:35:32.375Z,1.5
2018-01-11T04:36:36.079Z,1.5
2018-01-11T04:37:40.030Z,1.5
2018-01-11T04:38:43.476Z,1.5
2018-01-11T04:39:46.792Z,1.5
2018-01-11T04:40:53.756Z,1.5
2018-01-11T04:41:57.016Z,1.5
2018-01-11T04:43:01.327Z,1.6
2018-01-11T04:44:05.356Z,1.6
2018-01-11T04:45:13.607Z,1.6
2018-01-11T04:46:17.156Z,1.6
2018-01-11T04:47:22.540Z,1.6
2018-01-11T04:48:25.870Z,1.6
2018-01-11T04:49:31.195Z,1.6
2018-01-11T04:50:35.204Z,1.6
2018-01-11T04:51:38.494Z,1.6
2018-01-11T04:52:42.523Z,1.6
2018-01-11T04:53:47.534Z,1.6
2018-01-11T04:54:50.627Z,1.6
2018-01-11T04:56:30.234Z,1.6
2018-01-11T04:57:33.608Z,1.7
2018-01-11T04:58:38.400Z,1.7
2018-01-11T04:59:41.710Z,1.7
2018-01-11T05:00:45.577Z,1.7
2018-01-11T05:01:49.768Z,1.7
2018-01-11T05:02:53.574Z,1.7
2018-01-11T05:03:57.010Z,1.7
2018-01-11T05:05:01.159Z,1.7
2018-01-11T05:06:04.506Z,1.7
2018-01-11T05:07:12.761Z,1.7
2018-01-11T05:08:16.703Z,1.7
2018-01-11T05:09:20.778Z,1.7
2018-01-11T05:10:24.297Z,1.7
2018-01-11T05:11:27.653Z,1.7
2018-01-11T05:12:31.632Z,1.8
2018-01-11T05:13:35.841Z,1.8
2018-01-11T05:14:39.369Z,1.8
2018-01-11T05:15:44.205Z,1.8
2018-01-11T05:16:48.165Z,1.8
2018-01-11T05:17:54.767Z,2
2018-01-11T05:18:58.775Z,1.8
2018-01-11T05:20:02.919Z,1.8
2018-01-11T05:21:06.852Z,1.8
2018-01-11T05:22:10.392Z,1.8
2018-01-11T05:23:13.762Z,1.8
2018-01-11T05:24:19.228Z,1.8
2018-01-11T05:25:23.273Z,1.7
2018-01-11T05:26:28.763Z,1.8
2018-01-11T05:27:34.534Z,1.7
2018-01-11T05:28:41.297Z,1.7
2018-01-11T05:29:45.417Z,1.7
2018-01-11T05:30:48.996Z,1.7
2018-01-11T05:31:53.402Z,1.7
2018-01-11T05:32:59.738Z,1.7
2018-01-11T05:34:03.206Z,1.7
2018-01-11T05:35:07.376Z,1.7
2018-01-11T05:36:13.192Z,1.8
2018-01-11T05:37:18.996Z,1.7
2018-01-11T05:38:22.950Z,1.8
2018-01-11T05:40:02.345Z,1.7
2018-01-11T05:41:06.495Z,1.7
2018-01-11T05:42:10.653Z,1.7
2018-01-11T05:43:15.428Z,1.7
2018-01-11T05:44:20.104Z,1.7
2018-01-11T05:45:24.722Z,1.7
2018-01-11T05:46:28.626Z,1.7
2018-01-11T05:47:33.280Z,1.7
2018-01-11T05:48:37.040Z,1.7
2018-01-11T05:49:41.423Z,1.8
2018-01-11T05:50:51.935Z,1.6
2018-01-11T05:51:56.373Z,1.6
2018-01-11T05:53:00.484Z,1.6
2018-01-11T05:54:04.122Z,1.7
2018-01-11T05:55:08.259Z,1.7
2018-01-11T05:56:11.641Z,1.7
2018-01-11T05:57:15.573Z,1.7
2018-01-11T05:58:20.456Z,1.7
2018-01-11T05:59:25.799Z,1.7
2018-01-11T06:00:32.011Z,1.7
2018-01-11T06:01:40.368Z,1.7
2018-01-11T06:02:43.797Z,1.7
2018-01-11T06:03:49.339Z,1.7
2018-01-11T06:04:53.584Z,1.6
2018-01-11T06:05:57.033Z,1.7
2018-01-11T06:07:01.325Z,1.7
2018-01-11T06:08:25.398Z,1.7
2018-01-11T06:09:30.863Z,1.7
2018-01-11T06:10:35.951Z,1.7
2018-01-11T06:11:39.315Z,1.7
2018-01-11T06:13:00.104Z,1.7
2018-01-11T06:14:07.354Z,1.7
2018-01-11T06:15:11.834Z,1.7
2018-01-11T06:16:17.796Z,1.7
2018-01-11T06:17:21.147Z,1.7
2018-01-11T06:18:27.084Z,1.7
2018-01-11T06:19:31.277Z,1.7
2018-01-11T06:20:36.047Z,1.7
2018-01-11T06:21:39.321Z,1.7
2018-01-11T06:22:44.100Z,1.7
2018-01-11T06:23:54.887Z,1.7
2018-01-11T06:24:58.435Z,1.8
2018-01-11T06:26:04.065Z,1.7
2018-01-11T06:27:10.257Z,1.8
2018-01-11T06:28:15.978Z,1.8
2018-01-11T06:29:19.662Z,1.8
2018-01-11T06:30:25.814Z,1.8
2018-01-11T06:31:31.384Z,1.8
2018-01-11T06:32:37.134Z,1.8
2018-01-11T06:33:40.640Z,1.8
2018-01-11T06:34:50.437Z,1.8
2018-01-11T06:35:54.442Z,1.8
2018-01-11T06:36:58.503Z,1.8
2018-01-11T06:38:02.606Z,1.9
2018-01-11T06:39:07.936Z,1.9
2018-01-11T06:40:11.992Z,1.9
2018-01-11T06:41:16.400Z,1.9
2018-01-11T06:42:20.457Z,1.7
2018-01-11T06:43:23.958Z,1.9
2018-01-11T06:44:27.374Z,1.9
2018-01-11T06:45:34.804Z,1.9
2018-01-11T06:46:39.229Z,1.9
2018-01-11T06:47:44.665Z,1.9
2018-01-11T06:48:48.661Z,1.9
2018-01-11T06:49:56.246Z,1.9
2018-01-11T06:51:00.185Z,1.9
2018-01-11T06:52:03.637Z,2
2018-01-11T06:53:07.133Z,1.9
2018-01-11T06:54:10.566Z,2
2018-01-11T06:55:25.375Z,1.9
2018-01-11T06:57:40.740Z,2
2018-01-11T06:58:44.555Z,2
2018-01-11T06:59:47.896Z,2
2018-01-11T07:00:52.826Z,2
2018-01-11T07:01:56.872Z,2
2018-01-11T07:03:02.366Z,2
2018-01-11T07:04:08.207Z,2
2018-01-11T07:05:12.413Z,2
2018-01-11T07:06:17.605Z,2
2018-01-11T07:07:22.896Z,2
2018-01-11T07:08:32.105Z,2
2018-01-11T07:09:36.854Z,2.1
2018-01-11T07:10:40.782Z,2.1
2018-01-11T07:11:45.558Z,2.1
2018-01-11T07:12:50.193Z,2.1
2018-01-11T07:13:54.393Z,2
2018-01-11T07:14:58.398Z,2.1
2018-01-11T07:16:03.886Z,2.1
2018-01-11T07:17:08.326Z,2.1
2018-01-11T07:18:12.520Z,2.1
2018-01-11T07:19:56.220Z,1.9
2018-01-11T07:21:00.321Z,2.1
2018-01-11T07:22:03.852Z,2.1
2018-01-11T07:23:07.343Z,2.1
2018-01-11T07:24:12.054Z,2.1
2018-01-11T07:25:15.356Z,2
2018-01-11T07:26:18.735Z,2.1
2018-01-11T07:27:25.072Z,2.1
2018-01-11T07:28:31.436Z,2.1
2018-01-11T07:29:37.296Z,2.1
2018-01-11T07:30:47.060Z,2.1
2018-01-11T07:31:53.192Z,2.1
2018-01-11T07:32:57.320Z,2.1
2018-01-11T07:34:01.216Z,2.1
2018-01-11T07:35:05.157Z,2.1
2018-01-11T07:36:10.585Z,2.1
2018-01-11T07:37:16.023Z,2.2
2018-01-11T07:38:19.979Z,2.1
2018-01-11T07:39:25.026Z,2.1
2018-01-11T07:40:31.633Z,2.1
2018-01-11T07:41:40.342Z,2.1
2018-01-11T07:42:44.188Z,2.1
2018-01-11T07:43:49.618Z,2.1
2018-01-11T07:44:54.021Z,2.1
2018-01-11T07:45:58.600Z,2.1
2018-01-11T07:47:02.708Z,2.1
2018-01-11T07:48:10.988Z,2.1
2018-01-11T07:49:14.360Z,2.1
2018-01-11T07:50:19.767Z,2.2
2018-01-11T07:51:25.442Z,2.2
2018-01-11T07:52:35.638Z,2.1
2018-01-11T07:53:40.378Z,2.1
2018-01-11T07:54:45.440Z,2.1
2018-01-11T07:55:51.964Z,2.1
2018-01-11T07:56:58.465Z,2.1
2018-01-11T07:58:05.307Z,2.1
2018-01-11T07:59:12.100Z,2.2
2018-01-11T08:00:17.448Z,2.2
2018-01-11T08:01:25.966Z,2.2
2018-01-11T08:02:39.233Z,2.1
2018-01-11T08:03:47.305Z,2.1
2018-01-11T08:04:53.205Z,2.1
2018-01-11T08:05:57.325Z,2.1
2018-01-11T08:07:03.515Z,2.1
2018-01-11T08:08:14.907Z,2.1
2018-01-11T08:09:21.681Z,2.2
2018-01-11T08:10:29.146Z,2.2
2018-01-11T08:11:37.912Z,2.2
2018-01-11T08:12:43.599Z,2.2
2018-01-11T08:14:00.526Z,2.2
2018-01-11T08:15:16.773Z,2.2
2018-01-11T08:16:25.371Z,2.2
2018-01-11T08:17:31.081Z,2.2
2018-01-11T08:18:40.234Z,2.2
2018-01-11T08:19:49.332Z,2.2
2018-01-11T08:21:01.295Z,2.2
2018-01-11T08:22:08.747Z,2.2
2018-01-11T08:23:18.465Z,2.3
2018-01-11T08:24:24.751Z,2.2
2018-01-11T08:25:30.219Z,2.3
2018-01-11T08:26:45.949Z,2.3
2018-01-11T08:27:53.571Z,2.2
2018-01-11T08:29:01.541Z,2.2
2018-01-11T08:30:06.761Z,2.3
2018-01-11T08:31:12.561Z,2.3
2018-01-11T08:32:17.325Z,2.3
2018-01-11T08:33:24.162Z,2.3
2018-01-11T08:34:36.472Z,2.3
2018-01-11T08:35:43.247Z,2.3
2018-01-11T08:36:52.847Z,2.3
2018-01-11T08:38:06.535Z,2.4
2018-01-11T08:39:13.064Z,2.4
2018-01-11T08:40:18.118Z,2.3
2018-01-11T08:41:24.123Z,2.3
2018-01-11T08:42:29.283Z,2.4
2018-01-11T08:43:34.495Z,2.4
2018-01-11T08:44:41.394Z,2.4
2018-01-11T08:45:46.630Z,2.4
2018-01-11T08:46:53.223Z,2.3
2018-01-11T08:48:00.105Z,2.3
2018-01-11T08:49:42.742Z,2.3
2018-01-11T08:50:46.991Z,2.3
2018-01-11T08:51:54.327Z,2.3
2018-01-11T08:53:02.574Z,2.4
2018-01-11T08:54:08.948Z,2.4
2018-01-11T08:55:16.283Z,2.4
2018-01-11T08:56:21.313Z,2.4
2018-01-11T08:57:26.125Z,2.5
2018-01-11T08:58:32.192Z,2.4
2018-01-11T08:59:36.822Z,2.4
2018-01-11T09:00:45.691Z,2.5
2018-01-11T09:01:51.011Z,2.5
2018-01-11T09:02:55.271Z,2.5
2018-01-11T09:03:58.930Z,2.5
2018-01-11T09:05:04.488Z,2.5
2018-01-11T09:06:08.199Z,2.6
2018-01-11T09:07:16.483Z,2.6
2018-01-11T09:08:20.121Z,2.6
2018-01-11T09:09:26.028Z,2.6
2018-01-11T09:10:29.704Z,2.7
2018-01-11T09:12:09.238Z,2.7
2018-01-11T09:13:12.998Z,2.7
2018-01-11T09:14:16.773Z,2.7
2018-01-11T09:15:21.188Z,2.7
2018-01-11T09:16:24.917Z,2.8
2018-01-11T09:17:29.804Z,2.8
2018-01-11T09:18:34.851Z,2.8
2018-01-11T09:19:38.607Z,2.8
2018-01-11T09:20:43.237Z,2.8
2018-01-11T09:21:47.541Z,2.8
2018-01-11T09:22:57.433Z,2.8
2018-01-11T09:24:02.144Z,2.9
2018-01-11T09:25:06.561Z,2.9
2018-01-11T09:26:10.218Z,2.9
2018-01-11T09:27:14.993Z,3
2018-01-11T09:28:21.644Z,3
2018-01-11T09:29:25.901Z,3
2018-01-11T09:30:31.272Z,2.9
2018-01-11T09:31:36.868Z,2.9
2018-01-11T09:32:41.761Z,3
2018-01-11T09:33:52.078Z,3
2018-01-11T09:34:56.393Z,3
2018-01-11T09:36:00.748Z,2.9
2018-01-11T09:37:07.584Z,2.9
2018-01-11T09:38:13.150Z,3
2018-01-11T09:39:21.328Z,3
2018-01-11T09:40:26.269Z,3
2018-01-11T09:41:31.013Z,3.1
2018-01-11T09:42:40.051Z,3
2018-01-11T09:43:46.241Z,3
2018-01-11T09:45:29.874Z,3
2018-01-11T09:46:35.704Z,3
2018-01-11T09:47:41.459Z,3
2018-01-11T09:48:50.160Z,3.1
2018-01-11T09:49:58.584Z,3.1
2018-01-11T09:51:05.951Z,3.1
2018-01-11T09:52:13.900Z,3.2
2018-01-11T09:53:22.856Z,3.2
2018-01-11T09:54:28.344Z,3.2
2018-01-11T09:55:34.666Z,3.2
2018-01-11T09:56:50.438Z,3.2
2018-01-11T09:57:57.793Z,3.2
2018-01-11T09:59:07.143Z,3.2
2018-01-11T10:00:14.414Z,3.2
2018-01-11T10:01:23.108Z,3.2
2018-01-11T10:02:32.855Z,3.3
2018-01-11T10:03:42.738Z,3.3
2018-01-11T10:04:49.365Z,3.3
2018-01-11T10:05:57.325Z,3.3
2018-01-11T10:07:07.358Z,3.4
2018-01-11T10:09:27.413Z,3.4
2018-01-11T10:10:37.390Z,3.4
2018-01-11T10:11:44.945Z,3.4
2018-01-11T10:12:54.944Z,3.4
2018-01-11T10:14:04.168Z,3.4
2018-01-11T10:15:09.897Z,3.4
2018-01-11T10:16:17.240Z,3.4
2018-01-11T10:17:24.523Z,3.5
2018-01-11T10:18:39.993Z,3.5
2018-01-11T10:19:47.138Z,3.4
2018-01-11T10:20:57.742Z,3.5
2018-01-11T10:22:06.526Z,3.5
2018-01-11T10:23:12.023Z,3.4
2018-01-11T10:24:19.102Z,3.4
2018-01-11T10:25:27.442Z,3.4
2018-01-11T10:26:37.709Z,3.5
2018-01-11T10:27:43.934Z,3.5
2018-01-11T10:28:52.263Z,3.5
2018-01-11T10:30:00.601Z,3.5
2018-01-11T10:31:08.746Z,3.5
2018-01-11T10:32:24.118Z,3.5
2018-01-11T10:33:29.141Z,3.5
2018-01-11T10:34:37.087Z,3.6
2018-01-11T10:35:45.805Z,3.6
2018-01-11T10:36:57.106Z,3.6
2018-01-11T10:38:07.033Z,3.6
2018-01-11T10:39:17.774Z,3.6
2018-01-11T10:40:30.237Z,3.6
2018-01-11T10:41:35.468Z,3.6
2018-01-11T10:42:45.119Z,3.6
2018-01-11T10:44:01.136Z,3.6
2018-01-11T10:45:09.733Z,3.6
2018-01-11T10:46:20.681Z,3.8
2018-01-11T10:47:25.355Z,3.6
2018-01-11T10:48:35.513Z,3.6
2018-01-11T10:49:43.378Z,3.7
2018-01-11T10:50:48.238Z,3.6
2018-01-11T10:52:00.075Z,3.6
2018-01-11T10:53:07.863Z,3.7
2018-01-11T10:54:16.197Z,3.7
2018-01-11T10:55:35.438Z,3.7
2018-01-11T10:56:43.285Z,3.7
2018-01-11T10:57:50.895Z,3.8
2018-01-11T10:58:59.281Z,3.8
2018-01-11T11:00:07.271Z,3.8
2018-01-11T11:01:12.224Z,3.8
2018-01-11T11:02:17.808Z,3.9
2018-01-11T11:03:24.855Z,3.9
2018-01-11T11:04:34.337Z,3.9
2018-01-11T11:05:46.012Z,3.9
2018-01-11T11:07:00.749Z,3.9
2018-01-11T11:08:09.265Z,3.9
2018-01-11T11:09:16.647Z,3.9
2018-01-11T11:10:27.789Z,3.9
2018-01-11T11:11:35.468Z,3.9
2018-01-11T11:12:43.988Z,4
2018-01-11T11:13:50.680Z,4
2018-01-11T11:14:55.601Z,3.9
2018-01-11T11:16:06.513Z,3.9
2018-01-11T11:17:15.839Z,4
2018-01-11T11:18:29.882Z,4
2018-01-11T11:19:33.432Z,4
2018-01-11T11:20:40.677Z,4.2
2018-01-11T11:21:48.933Z,4.1
2018-01-11T11:22:54.828Z,4.1
2018-01-11T11:23:59.758Z,4.2
2018-01-11T11:25:07.749Z,4.2
2018-01-11T11:26:12.820Z,4.2
2018-01-11T11:27:18.919Z,4.2
2018-01-11T11:28:25.838Z,4.3
2018-01-11T11:29:36.253Z,4.3
2018-01-11T11:30:40.013Z,4.3
2018-01-11T11:31:43.762Z,4.2
2018-01-11T11:32:48.790Z,4.3
2018-01-11T11:33:52.523Z,4.4
2018-01-11T11:34:55.927Z,4.4
2018-01-11T11:35:59.580Z,4.4
2018-01-11T11:37:05.687Z,4.4
2018-01-11T11:38:12.301Z,4.4
2018-01-11T11:39:17.728Z,4.4
2018-01-11T11:40:27.457Z,4.5
2018-01-11T11:41:31.875Z,4.5
2018-01-11T11:42:36.660Z,4.5
2018-01-11T11:43:41.638Z,4.5
2018-01-11T11:44:45.451Z,4.7
2018-01-11T11:45:49.713Z,4.6
2018-01-11T11:46:53.370Z,4.6
2018-01-11T11:47:57.201Z,4.6
2018-01-11T11:49:02.169Z,4.5
2018-01-11T11:50:05.915Z,4.6
2018-01-11T11:51:15.766Z,4.6
2018-01-11T11:52:22.215Z,4.7
2018-01-11T11:53:31.392Z,4.8
2018-01-11T11:54:37.071Z,4.8
2018-01-11T11:55:42.152Z,4.8
2018-01-11T11:56:49.302Z,4.8
2018-01-11T11:57:56.017Z,4.9
2018-01-11T11:59:00.776Z,4.8
2018-01-11T12:00:04.592Z,4.8
2018-01-11T12:01:08.987Z,4.8
2018-01-11T12:02:17.312Z,4.7
2018-01-11T12:03:21.699Z,4.7
2018-01-11T12:04:26.405Z,4.7
2018-01-11T12:05:31.248Z,4.8
2018-01-11T12:06:35.078Z,4.9
2018-01-11T12:07:38.844Z,4.8
2018-01-11T12:08:45.068Z,4.8
2018-01-11T12:09:50.583Z,5
2018-01-11T12:10:56.859Z,4.8
2018-01-11T12:12:01.297Z,4.8
2018-01-11T12:13:11.245Z,4.8
2018-01-11T12:14:15.027Z,4.8
2018-01-11T12:15:18.766Z,4.8
2018-01-11T12:16:24.660Z,4.8
2018-01-11T12:17:28.417Z,4.8
2018-01-11T12:18:33.082Z,4.8
2018-01-11T12:19:37.980Z,4.7
2018-01-11T12:20:43.086Z,4.8
2018-01-11T12:21:47.947Z,4.8
2018-01-11T12:22:53.329Z,4.8
2018-01-11T12:24:01.276Z,4.8
2018-01-11T12:25:06.420Z,4.9
2018-01-11T12:26:10.803Z,4.8
2018-01-11T12:27:15.829Z,4.8
2018-01-11T12:28:20.576Z,4.8
2018-01-11T12:29:25.922Z,4.8
2018-01-11T12:30:31.034Z,4.8
2018-01-11T12:31:34.784Z,4.7
2018-01-11T12:32:41.754Z,4.7
2018-01-11T12:33:46.457Z,4.7
2018-01-11T12:35:26.772Z,4.8
2018-01-11T12:36:32.521Z,4.8
2018-01-11T12:37:37.763Z,4.8
2018-01-11T12:38:41.354Z,4.8
2018-01-11T12:39:45.042Z,4.7
2018-01-11T12:40:48.784Z,4.8
2018-01-11T12:41:53.756Z,4.8
2018-01-11T12:42:57.493Z,4.8
2018-01-11T12:44:01.254Z,4.7
2018-01-11T12:45:05.003Z,4.8
2018-01-11T12:46:14.510Z,4.7
2018-01-11T12:47:18.221Z,4.8
2018-01-11T12:48:23.955Z,4.8
2018-01-11T12:49:27.665Z,4.8
2018-01-11T12:50:31.434Z,4.8
2018-01-11T12:51:35.175Z,4.9
2018-01-11T12:52:38.928Z,4.9
2018-01-11T12:53:46.930Z,4.9
2018-01-11T12:54:50.633Z,4.9
2018-01-11T12:55:55.297Z,4.9
2018-01-11T12:57:04.198Z,4.9
2018-01-11T12:58:08.518Z,4.9
2018-01-11T12:59:14.453Z,5
2018-01-11T13:00:18.239Z,5
2018-01-11T13:01:22.272Z,5
2018-01-11T13:02:26.048Z,5
2018-01-11T13:03:31.856Z,5
2018-01-11T13:04:36.357Z,5
2018-01-11T13:05:40.114Z,4.9
2018-01-11T13:06:45.076Z,5
2018-01-11T13:07:52.618Z,4.9
2018-01-11T13:08:56.038Z,4.9
2018-01-11T13:09:59.732Z,4.9
2018-01-11T13:11:03.527Z,4.9
2018-01-11T13:12:07.176Z,5
2018-01-11T13:13:11.490Z,5
2018-01-11T13:14:16.273Z,5
2018-01-11T13:15:20.011Z,4.9
2018-01-11T13:16:25.052Z,5
2018-01-11T13:17:28.790Z,4.9
2018-01-11T13:18:37.042Z,4.9
2018-01-11T13:19:41.427Z,4.9
2018-01-11T13:20:47.383Z,4.9
2018-01-11T13:21:51.932Z,4.9
2018-01-11T13:22:56.721Z,5
2018-01-11T13:24:00.443Z,5
2018-01-11T13:25:04.237Z,5
2018-01-11T13:26:07.925Z,5
2018-01-11T13:27:11.667Z,4.9
2018-01-11T13:28:16.636Z,5
2018-01-11T13:29:26.386Z,4.9
2018-01-11T13:30:30.167Z,4.9
2018-01-11T13:31:33.926Z,4.9
2018-01-11T13:32:37.692Z,4.9
2018-01-11T13:33:43.848Z,5
2018-01-11T13:34:50.330Z,5
2018-01-11T13:35:56.277Z,5
2018-01-11T13:36:59.841Z,5
2018-01-11T13:38:03.584Z,5
2018-01-11T13:39:07.320Z,5
2018-01-11T13:40:14.846Z,5
2018-01-11T13:41:18.578Z,5
2018-01-11T13:42:23.635Z,5
2018-01-11T13:43:28.457Z,5
2018-01-11T13:44:33.499Z,5
2018-01-11T13:45:38.953Z,5
2018-01-11T13:46:44.682Z,5
2018-01-11T13:47:51.728Z,5
2018-01-11T13:49:01.195Z,5
2018-01-11T13:50:06.629Z,5.1
2018-01-11T13:51:15.914Z,5.2
2018-01-11T13:52:20.341Z,5
2018-01-11T13:53:24.060Z,5
2018-01-11T13:54:27.850Z,5.1
2018-01-11T13:55:32.304Z,5
2018-01-11T13:56:36.003Z,5
2018-01-11T13:57:40.837Z,5.1
2018-01-11T13:58:44.573Z,5
2018-01-11T13:59:48.694Z,5
2018-01-11T14:00:52.485Z,5
2018-01-11T14:02:32.577Z,5
2018-01-11T14:03:36.292Z,5
2018-01-11T14:04:40.771Z,5
2018-01-11T14:05:45.151Z,5
2018-01-11T14:06:48.877Z,5
2018-01-11T14:07:52.708Z,5
2018-01-11T14:08:57.072Z,5
2018-01-11T14:10:00.818Z,5
2018-01-11T14:11:04.585Z,5
2018-01-11T14:12:11.563Z,5
2018-01-11T14:13:21.880Z,5
2018-01-11T14:14:28.630Z,4.9
2018-01-11T14:15:32.423Z,5
2018-01-11T14:16:36.139Z,5
2018-01-11T14:17:40.124Z,5
2018-01-11T14:18:43.950Z,5
2018-01-11T14:19:47.698Z,5.1
2018-01-11T14:20:51.431Z,5
2018-01-11T14:21:56.316Z,5
2018-01-11T14:23:00.070Z,5
2018-01-11T14:24:08.519Z,4.8
2018-01-11T14:25:12.246Z,5
2018-01-11T14:26:15.954Z,5
2018-01-11T14:27:20.296Z,5
2018-01-11T14:28:23.918Z,5
2018-01-11T14:29:28.558Z,5
2018-01-11T14:30:32.875Z,5
2018-01-11T14:31:36.430Z,5
2018-01-11T14:32:41.039Z,5
2018-01-11T14:33:45.350Z,5
2018-01-11T14:34:52.938Z,5
2018-01-11T14:35:56.752Z,5
2018-01-11T14:37:01.850Z,5
2018-01-11T14:38:06.881Z,5
2018-01-11T14:39:11.369Z,5
2018-01-11T14:40:15.745Z,5
2018-01-11T14:41:20.727Z,5
2018-01-11T14:42:24.946Z,5
2018-01-11T14:43:29.093Z,5
2018-01-11T14:44:32.847Z,5
2018-01-11T14:45:40.412Z,5
2018-01-11T14:46:46.307Z,5
2018-01-11T14:47:50.069Z,5
2018-01-11T14:48:53.656Z,5
2018-01-11T14:49:57.924Z,5
2018-01-11T14:51:01.674Z,5
2018-01-11T14:52:05.458Z,4.9
2018-01-11T14:53:10.585Z,5
2018-01-11T14:54:14.954Z,4.9
2018-01-11T14:55:20.709Z,4.9
2018-01-11T14:56:30.338Z,4.9
2018-01-11T14:57:35.973Z,4.9
2018-01-11T14:58:41.772Z,4.9
2018-01-11T14:59:45.513Z,4.9
2018-01-11T15:00:52.109Z,4.9
2018-01-11T15:01:55.822Z,4.9
2018-01-11T15:02:59.536Z,4.9
2018-01-11T15:04:03.321Z,4.9
2018-01-11T15:05:07.057Z,4.9
2018-01-11T15:06:10.798Z,4.8
2018-01-11T15:07:18.875Z,4.9
2018-01-11T15:08:23.060Z,4.9
2018-01-11T15:09:27.341Z,4.9
2018-01-11T15:10:31.097Z,4.9
2018-01-11T15:11:34.415Z,4.9
2018-01-11T15:12:38.616Z,4.9
2018-01-11T15:13:42.413Z,4.8
2018-01-11T15:14:46.114Z,4.9
2018-01-11T15:15:52.372Z,4.9
2018-01-11T15:16:56.114Z,4.6